createdAt,value
2023-04-12T00:01:02.529Z,3.30
2023-04-12T00:03:30.435Z,2.88
2023-04-12T00:05:59.783Z,1.52
2023-04-12T00:08:32.893Z,4.27
2023-04-12T00:11:00.134Z,1.50
2023-04-12T00:13:28.674Z,2.42
2023-04-12T00:15:55.903Z,2.63
2023-04-12T00:18:24.924Z,2.80
2023-04-12T00:20:52.889Z,2.00
2023-04-12T00:23:20.221Z,1.73
2023-04-12T00:25:47.521Z,2.10
2023-04-12T00:28:15.644Z,4.15
2023-04-12T00:30:44.861Z,1.35
2023-04-12T00:33:12.160Z,2.03
2023-04-12T00:35:39.357Z,1.67
2023-04-12T00:38:10.368Z,2.13
2023-04-12T00:40:38.195Z,2.30
2023-04-12T00:43:05.405Z,3.50
2023-04-12T00:45:32.625Z,1.92
2023-04-12T00:48:01.274Z,1.60
2023-04-12T00:50:28.521Z,2.58
2023-04-12T00:52:55.740Z,1.55
2023-04-12T00:55:23.060Z,1.80
2023-04-12T00:57:51.595Z,2.97
2023-04-12T01:00:18.993Z,1.65
2023-04-12T01:02:50.375Z,2.30
2023-04-12T01:05:22.283Z,2.33
2023-04-12T01:07:54.180Z,2.30
2023-04-12T01:10:25.095Z,4.53
2023-04-12T01:12:53.330Z,3.00
2023-04-12T01:15:20.902Z,1.83
2023-04-12T01:17:48.724Z,3.85
2023-04-12T01:20:17.074Z,3.15
2023-04-12T01:22:54.706Z,2.45
2023-04-12T01:25:26.233Z,2.45
2023-04-12T01:27:55.520Z,2.47
2023-04-12T01:30:22.721Z,1.90
2023-04-12T01:32:51.088Z,1.38
2023-04-12T01:35:18.622Z,2.50
2023-04-12T01:37:45.928Z,2.92
2023-04-12T01:40:13.671Z,1.95
2023-04-12T01:42:40.939Z,2.20
2023-04-12T01:45:10.158Z,2.38
2023-04-12T01:47:37.392Z,2.37
2023-04-12T01:50:09.543Z,2.80
2023-04-12T01:52:37.779Z,1.70
2023-04-12T01:55:05.659Z,2.38
2023-04-12T01:57:32.859Z,1.55
2023-04-12T02:00:00.040Z,1.80
2023-04-12T02:02:28.709Z,1.77
2023-04-12T02:04:56.419Z,2.78
2023-04-12T02:07:23.901Z,2.05
2023-04-12T02:09:51.128Z,2.25
2023-04-12T02:12:18.323Z,2.30
2023-04-12T02:14:45.604Z,2.97
2023-04-12T02:17:13.074Z,2.22
2023-04-12T02:19:41.621Z,2.50
2023-04-12T02:22:08.865Z,1.42
2023-04-12T02:24:36.063Z,1.42
2023-04-12T02:27:03.646Z,1.30
2023-04-12T02:29:31.170Z,2.13
2023-04-12T02:31:58.380Z,2.30
2023-04-12T02:34:25.585Z,2.63
2023-04-12T02:36:54.087Z,1.92
2023-04-12T02:39:22.003Z,1.77
2023-04-12T02:41:49.239Z,2.60
2023-04-12T02:44:16.461Z,3.38
2023-04-12T02:46:43.664Z,2.35
2023-04-12T02:49:11.331Z,1.30
2023-04-12T02:51:39.146Z,2.65
2023-04-12T02:54:07.708Z,2.13
2023-04-12T02:56:36.013Z,3.10
2023-04-12T02:59:03.212Z,2.75
2023-04-12T03:01:30.949Z,2.95
2023-04-12T03:03:58.523Z,1.55
2023-04-12T03:06:25.893Z,2.60
2023-04-12T03:08:53.110Z,1.90
2023-04-12T03:11:21.635Z,2.50
2023-04-12T03:13:48.832Z,2.40
2023-04-12T03:16:23.253Z,3.22
2023-04-12T03:18:51.060Z,2.47
2023-04-12T03:21:18.903Z,1.50
2023-04-12T03:23:46.305Z,2.58
2023-04-12T03:26:13.536Z,1.90
2023-04-12T03:28:42.782Z,3.17
2023-04-12T03:31:10.667Z,2.80
2023-04-12T03:33:37.965Z,3.35
2023-04-12T03:36:05.454Z,1.60
2023-04-12T03:38:32.653Z,3.13
2023-04-12T03:40:59.837Z,1.80
2023-04-12T03:43:27.279Z,3.17
2023-04-12T03:45:55.849Z,2.53
2023-04-12T03:48:23.064Z,2.42
2023-04-12T03:50:54.593Z,1.52
2023-04-12T03:53:21.965Z,2.58
2023-04-12T03:55:49.147Z,1.65
2023-04-12T03:58:16.413Z,2.58
2023-04-12T04:00:44.473Z,3.28
2023-04-12T04:03:13.034Z,2.00
2023-04-12T04:05:40.344Z,2.50
2023-04-12T04:08:08.215Z,1.63
2023-04-12T04:10:35.502Z,1.80
2023-04-12T04:13:02.708Z,3.10
2023-04-12T04:15:29.913Z,1.70
2023-04-12T04:17:57.149Z,1.90
2023-04-12T04:20:27.752Z,1.80
2023-04-12T04:22:55.172Z,2.20
2023-04-12T04:25:24.896Z,2.08
2023-04-12T04:27:52.115Z,1.77
2023-04-12T04:30:19.403Z,1.92
2023-04-12T04:32:48.130Z,3.22
2023-04-12T04:35:15.650Z,1.50
2023-04-12T04:37:44.616Z,2.60
2023-04-12T04:40:12.399Z,2.08
2023-04-12T04:42:39.761Z,1.65
2023-04-12T04:45:13.556Z,2.90
2023-04-12T04:47:40.927Z,1.30
2023-04-12T04:50:08.616Z,1.65
2023-04-12T04:52:37.545Z,2.08
2023-04-12T04:55:08.554Z,4.13
2023-04-12T04:57:37.364Z,4.05
2023-04-12T05:00:10.871Z,2.42
2023-04-12T05:02:39.830Z,1.77
2023-04-12T05:05:07.626Z,1.55
2023-04-12T05:07:34.826Z,2.65
2023-04-12T05:10:02.005Z,3.40
2023-04-12T05:12:31.256Z,2.70
2023-04-12T05:15:11.144Z,1.60
2023-04-12T05:17:39.132Z,3.20
2023-04-12T05:20:07.822Z,2.05
2023-04-12T05:22:35.123Z,2.75
2023-04-12T05:25:03.046Z,2.20
2023-04-12T05:27:31.695Z,2.15
2023-04-12T05:29:58.907Z,2.83
2023-04-12T05:32:26.399Z,2.20
2023-04-12T05:34:53.643Z,3.88
2023-04-12T05:37:20.955Z,1.92
2023-04-12T05:39:48.184Z,3.78
2023-04-12T05:42:15.374Z,3.00
2023-04-12T05:44:44.930Z,4.80
2023-04-12T05:47:12.522Z,5.28
2023-04-12T05:49:39.716Z,3.83
2023-04-12T05:52:07.223Z,3.22
2023-04-12T05:54:34.964Z,6.65
2023-04-12T05:57:02.188Z,2.63
2023-04-12T05:59:29.436Z,3.45
2023-04-12T06:01:57.981Z,4.15
2023-04-12T06:04:34.910Z,3.47
2023-04-12T06:07:13.353Z,4.53
2023-04-12T06:09:42.124Z,3.50
2023-04-12T06:12:09.318Z,4.95
2023-04-12T06:14:36.524Z,4.03
2023-04-12T06:17:05.027Z,3.83
2023-04-12T06:19:32.228Z,3.97
2023-04-12T06:21:59.432Z,6.05
2023-04-12T06:24:26.635Z,4.60
2023-04-12T06:26:53.845Z,5.25
2023-04-12T06:29:21.078Z,3.55
2023-04-12T06:31:48.500Z,5.15
2023-04-12T06:34:17.388Z,4.30
2023-04-12T06:36:46.272Z,4.10
2023-04-12T06:39:14.019Z,4.60
2023-04-12T06:41:43.449Z,4.13
2023-04-12T06:44:10.821Z,4.38
2023-04-12T06:46:38.058Z,3.55
2023-04-12T06:49:05.710Z,5.13
2023-04-12T06:51:35.324Z,3.58
2023-04-12T06:54:02.566Z,4.07
2023-04-12T06:56:29.773Z,5.13
2023-04-12T06:58:57.473Z,3.58
2023-04-12T07:01:24.839Z,4.68
2023-04-12T07:03:52.179Z,3.28
2023-04-12T07:06:25.609Z,5.50
2023-04-12T07:08:55.098Z,3.05
2023-04-12T07:11:23.229Z,3.30
2023-04-12T07:13:51.023Z,6.13
2023-04-12T07:16:18.494Z,6.07
2023-04-12T07:18:45.932Z,3.90
2023-04-12T07:21:14.298Z,2.58
2023-04-12T07:23:41.757Z,4.80
2023-04-12T07:26:10.510Z,2.55
2023-04-12T07:28:38.974Z,2.13
2023-04-12T07:31:06.597Z,3.28
2023-04-12T07:33:35.712Z,2.75
2023-04-12T07:36:03.041Z,2.27
2023-04-12T07:38:30.565Z,3.25
2023-04-12T07:40:57.776Z,3.22
2023-04-12T07:43:26.321Z,2.08
2023-04-12T07:45:54.957Z,2.42
2023-04-12T07:48:22.184Z,1.83
2023-04-12T07:50:49.413Z,2.65
2023-04-12T07:53:19.882Z,3.28
2023-04-12T07:55:47.184Z,2.90
2023-04-12T07:58:14.453Z,3.80
2023-04-12T08:00:42.993Z,2.28
2023-04-12T08:03:10.338Z,6.60
2023-04-12T08:05:37.701Z,2.35
2023-04-12T08:08:06.040Z,3.05
2023-04-12T08:10:33.436Z,7.10
2023-04-12T08:13:00.625Z,5.03
2023-04-12T08:15:27.907Z,6.10
2023-04-12T08:17:56.499Z,5.63
2023-04-12T08:20:23.726Z,4.43
2023-04-12T08:22:52.096Z,7.28
2023-04-12T08:25:19.344Z,5.97
2023-04-12T08:27:46.671Z,9.00
2023-04-12T08:30:14.285Z,8.23
2023-04-12T08:32:41.536Z,9.48
2023-04-12T08:35:10.968Z,9.48
2023-04-12T08:37:38.181Z,7.80
2023-04-12T08:40:07.984Z,8.95
2023-04-12T08:42:36.129Z,6.47
2023-04-12T08:45:06.322Z,11.02
2023-04-12T08:50:01.363Z,7.03
2023-04-12T08:52:29.895Z,5.55
2023-04-12T08:54:57.090Z,5.75
2023-04-12T08:57:24.294Z,2.78
2023-04-12T08:59:51.591Z,4.63
2023-04-12T09:02:18.891Z,7.43
2023-04-12T09:04:49.681Z,7.00
2023-04-12T09:07:17.184Z,2.58
2023-04-12T09:09:45.924Z,2.42
2023-04-12T09:12:13.243Z,4.25
2023-04-12T09:14:40.784Z,3.08
2023-04-12T09:17:19.770Z,4.10
2023-04-12T09:19:46.958Z,2.00
2023-04-12T09:22:14.198Z,4.28
2023-04-12T09:24:47.733Z,5.63
2023-04-12T09:27:14.953Z,2.80
2023-04-12T09:29:42.151Z,4.45
2023-04-12T09:32:09.728Z,3.25
2023-04-12T09:34:37.201Z,5.43
2023-04-12T09:37:12.968Z,2.20
2023-04-12T09:39:40.798Z,2.78
2023-04-12T09:42:21.413Z,3.05
2023-04-12T09:44:57.239Z,3.30
2023-04-12T09:47:24.995Z,4.03
2023-04-12T09:49:52.300Z,1.80
2023-04-12T09:52:19.539Z,3.17
2023-04-12T09:54:47.035Z,3.55
2023-04-12T09:57:16.137Z,2.25
2023-04-12T09:59:43.356Z,1.73
2023-04-12T10:02:12.563Z,2.72
2023-04-12T10:04:40.490Z,2.75
2023-04-12T10:07:07.811Z,2.90
2023-04-12T10:09:35.461Z,1.98
2023-04-12T10:12:03.049Z,1.48
2023-04-12T10:14:31.582Z,1.92
2023-04-12T10:16:59.062Z,2.40
2023-04-12T10:19:26.483Z,7.53
2023-04-12T10:21:53.800Z,9.00
2023-04-12T10:24:22.320Z,8.43
2023-04-12T10:26:50.249Z,7.05
2023-04-12T10:29:24.504Z,9.57
2023-04-12T10:31:53.227Z,8.07
2023-04-12T10:34:24.162Z,6.82
2023-04-12T10:36:51.627Z,7.40
2023-04-12T10:39:18.964Z,6.72
2023-04-12T10:42:01.308Z,5.47
2023-04-12T10:44:28.574Z,6.10
2023-04-12T10:49:18.596Z,3.47
2023-04-12T10:52:04.328Z,6.32
2023-04-12T10:54:31.989Z,5.47
2023-04-12T10:56:59.196Z,5.95
2023-04-12T10:59:31.422Z,4.10
2023-04-12T11:02:11.501Z,5.95
2023-04-12T11:05:00.532Z,4.45
2023-04-12T11:07:35.373Z,4.10
2023-04-12T11:10:02.673Z,4.28
2023-04-12T11:12:30.009Z,5.13
2023-04-12T11:15:00.919Z,3.85
2023-04-12T11:17:28.276Z,4.53
2023-04-12T11:20:00.329Z,2.95
2023-04-12T11:22:28.643Z,4.03
2023-04-12T11:24:56.381Z,3.97
2023-04-12T11:27:23.817Z,3.47
2023-04-12T11:29:51.626Z,2.90
2023-04-12T11:32:19.015Z,2.78
2023-04-12T11:34:46.877Z,4.40
2023-04-12T11:37:15.630Z,2.38
2023-04-12T11:39:43.103Z,2.50
2023-04-12T11:42:13.310Z,4.10
2023-04-12T11:44:55.279Z,2.85
2023-04-12T11:47:25.416Z,3.40
2023-04-12T11:49:52.995Z,2.03
2023-04-12T11:52:21.565Z,2.65
2023-04-12T11:54:49.139Z,2.00
2023-04-12T11:57:16.988Z,2.50
2023-04-12T11:59:44.580Z,1.65
2023-04-12T12:02:22.508Z,2.35
2023-04-12T12:04:51.184Z,3.90
2023-04-12T12:07:19.226Z,1.48
2023-04-12T12:09:47.985Z,1.80
2023-04-12T12:12:16.028Z,1.05
2023-04-12T12:14:44.521Z,1.85
2023-04-12T12:17:12.232Z,1.48
2023-04-12T12:19:39.809Z,2.25
2023-04-12T12:22:08.288Z,1.40
2023-04-12T12:24:37.524Z,2.33
2023-04-12T12:27:08.499Z,4.38
2023-04-12T12:29:36.519Z,2.00
2023-04-12T12:32:06.403Z,2.13
2023-04-12T12:34:34.719Z,2.60
2023-04-12T12:37:02.075Z,1.45
2023-04-12T12:39:30.485Z,1.13
2023-04-12T12:41:57.716Z,1.90
2023-04-12T12:44:26.250Z,1.52
2023-04-12T12:46:58.738Z,1.23
2023-04-12T12:49:33.812Z,1.70
2023-04-12T12:52:01.182Z,1.17
2023-04-12T12:54:40.651Z,0.90
2023-04-12T12:57:08.964Z,1.35
2023-04-12T12:59:37.526Z,2.25
2023-04-12T13:02:05.283Z,2.97
2023-04-12T13:04:32.849Z,2.25
2023-04-12T13:07:00.428Z,1.50
2023-04-12T13:09:27.681Z,1.45
2023-04-12T13:11:55.055Z,1.10
2023-04-12T13:14:22.327Z,1.25
2023-04-12T13:16:50.868Z,0.95
2023-04-12T13:19:18.226Z,3.00
2023-04-12T13:21:45.731Z,1.17
2023-04-12T13:24:12.926Z,1.17
2023-04-12T13:26:40.372Z,1.10
2023-04-12T13:29:07.574Z,1.95
2023-04-12T13:31:34.909Z,3.22
2023-04-12T13:34:03.462Z,1.25
2023-04-12T13:36:30.845Z,0.93
2023-04-12T13:38:58.248Z,1.20
2023-04-12T13:41:26.135Z,4.13
2023-04-12T13:43:53.332Z,2.28
2023-04-12T13:46:20.766Z,1.98
2023-04-12T13:48:47.954Z,1.35
2023-04-12T13:51:16.495Z,1.42
2023-04-12T13:53:43.706Z,1.27
2023-04-12T13:56:11.675Z,1.10
2023-04-12T13:58:39.787Z,1.00
2023-04-12T14:01:07.595Z,1.33
2023-04-12T14:03:34.894Z,1.05
2023-04-12T14:06:02.157Z,2.92
2023-04-12T14:08:30.669Z,1.45
2023-04-12T14:10:57.897Z,2.15
2023-04-12T14:13:25.339Z,1.05
2023-04-12T14:15:52.558Z,1.00
2023-04-12T14:18:19.939Z,1.45
2023-04-12T14:20:52.000Z,0.90
2023-04-12T14:23:19.202Z,1.10
2023-04-12T14:25:47.699Z,1.30
2023-04-12T14:28:17.103Z,2.10
2023-04-12T14:30:44.310Z,1.52
2023-04-12T14:33:11.891Z,1.40
2023-04-12T14:35:39.179Z,1.20
2023-04-12T14:38:06.672Z,1.25
2023-04-12T14:40:33.864Z,1.48
2023-04-12T14:43:02.509Z,1.73
2023-04-12T14:45:29.721Z,1.13
2023-04-12T14:47:57.074Z,1.00
2023-04-12T14:50:24.290Z,1.00
2023-04-12T14:52:51.507Z,1.40
2023-04-12T14:55:19.172Z,2.05
2023-04-12T14:57:46.587Z,2.15
2023-04-12T15:00:16.292Z,2.15
2023-04-12T15:02:45.865Z,1.35
2023-04-12T15:05:13.473Z,0.82
2023-04-12T15:07:41.324Z,1.08
2023-04-12T15:10:09.084Z,0.90
2023-04-12T15:12:37.237Z,1.13
2023-04-12T15:15:06.448Z,0.90
2023-04-12T15:17:35.548Z,1.05
2023-04-12T15:20:08.937Z,1.08
2023-04-12T15:22:36.277Z,0.82
2023-04-12T15:25:03.471Z,1.25
2023-04-12T15:27:30.938Z,1.08
2023-04-12T15:29:58.209Z,1.05
2023-04-12T15:32:26.890Z,0.88
2023-04-12T15:34:56.308Z,1.60
2023-04-12T15:37:23.590Z,1.00
2023-04-12T15:39:50.885Z,1.00
2023-04-12T15:42:18.090Z,1.08
2023-04-12T15:44:45.590Z,2.08
2023-04-12T15:47:12.789Z,1.00
2023-04-12T15:49:40.046Z,0.80
2023-04-12T15:52:08.771Z,0.95
2023-04-12T15:54:43.067Z,0.90
2023-04-12T15:57:11.454Z,0.90
2023-04-12T15:59:38.892Z,0.95
2023-04-12T16:02:09.143Z,0.90
2023-04-12T16:04:37.108Z,1.20
2023-04-12T16:07:04.561Z,1.10
2023-04-12T16:09:33.428Z,0.90
2023-04-12T16:12:01.673Z,0.80
2023-04-12T16:14:28.874Z,1.05
2023-04-12T16:16:57.656Z,0.90
2023-04-12T16:19:24.889Z,0.82
2023-04-12T16:21:52.080Z,0.82
2023-04-12T16:24:19.264Z,1.00
2023-04-12T16:26:48.055Z,1.13
2023-04-12T16:29:15.479Z,1.00
2023-04-12T16:31:42.752Z,0.80
2023-04-12T16:34:10.890Z,0.70
2023-04-12T16:36:39.052Z,0.85
2023-04-12T16:39:06.575Z,0.90
2023-04-12T16:41:33.786Z,0.85
2023-04-12T16:44:03.286Z,1.38
2023-04-12T16:46:31.033Z,1.45
2023-04-12T16:48:59.526Z,1.00
2023-04-12T16:51:27.176Z,0.90
2023-04-12T16:54:04.442Z,0.70
2023-04-12T16:56:32.106Z,0.88
2023-04-12T16:59:00.010Z,1.15
2023-04-12T17:01:28.515Z,2.20
2023-04-12T17:03:55.867Z,1.00
2023-04-12T17:06:23.201Z,0.90
2023-04-12T17:08:50.404Z,1.08
2023-04-12T17:11:17.634Z,1.10
2023-04-12T17:13:46.212Z,1.25
2023-04-12T17:16:15.971Z,0.80
2023-04-12T17:18:44.504Z,1.60
2023-04-12T17:21:12.118Z,1.55
2023-04-12T17:23:39.420Z,1.40
2023-04-12T17:26:08.163Z,1.23
2023-04-12T17:28:38.815Z,1.38
2023-04-12T17:31:06.252Z,1.30
2023-04-12T17:33:33.471Z,1.30
2023-04-12T17:36:02.380Z,2.13
2023-04-12T17:38:29.584Z,1.30
2023-04-12T17:40:56.782Z,1.30
2023-04-12T17:43:23.989Z,1.17
2023-04-12T17:45:51.230Z,1.48
2023-04-12T17:48:18.460Z,1.50
2023-04-12T17:50:46.949Z,1.30
2023-04-12T17:53:15.441Z,1.73
2023-04-12T17:55:42.794Z,1.90
2023-04-12T17:58:09.981Z,1.45
2023-04-12T18:00:37.198Z,1.35
2023-04-12T18:03:07.514Z,1.55
2023-04-12T18:05:34.982Z,1.50
2023-04-12T18:08:02.202Z,1.38
2023-04-12T18:10:30.717Z,1.52
2023-04-12T18:12:57.900Z,1.23
2023-04-12T18:15:25.082Z,1.60
2023-04-12T18:17:52.408Z,1.95
2023-04-12T18:20:19.705Z,1.40
2023-04-12T18:22:46.920Z,1.75
2023-04-12T18:25:14.116Z,1.60
2023-04-12T18:27:42.620Z,2.53
2023-04-12T18:30:09.999Z,1.50
2023-04-12T18:32:37.243Z,2.30
2023-04-12T18:35:04.898Z,2.45
2023-04-12T18:37:32.103Z,2.45
2023-04-12T18:39:59.355Z,2.92
2023-04-12T18:42:26.571Z,2.42
2023-04-12T18:44:56.370Z,1.60
2023-04-12T18:47:23.583Z,2.33
2023-04-12T18:49:50.779Z,2.58
2023-04-12T18:52:17.951Z,2.28
2023-04-12T18:54:45.346Z,2.30
2023-04-12T18:57:12.695Z,2.35
2023-04-12T18:59:39.909Z,1.67
2023-04-12T19:02:09.290Z,1.90
2023-04-12T19:04:36.918Z,3.00
2023-04-12T19:07:04.102Z,4.25
2023-04-12T19:09:31.891Z,3.22
2023-04-12T19:11:59.071Z,3.80
2023-04-12T19:14:28.030Z,3.83
2023-04-12T19:16:55.211Z,4.10
2023-04-12T19:19:23.732Z,1.98
2023-04-12T19:21:51.045Z,3.55
2023-04-12T19:24:18.268Z,3.50
2023-04-12T19:26:47.263Z,4.50
2023-04-12T19:29:15.862Z,3.90
2023-04-12T19:31:47.130Z,3.15
2023-04-12T19:34:17.758Z,3.38
2023-04-12T19:36:46.512Z,4.07
2023-04-12T19:39:13.739Z,5.22
2023-04-12T19:41:40.912Z,2.50
2023-04-12T19:44:08.127Z,5.47
2023-04-12T19:46:38.490Z,2.40
2023-04-12T19:49:05.703Z,2.65
2023-04-12T19:51:32.941Z,5.13
2023-04-12T19:54:01.550Z,3.33
2023-04-12T19:56:30.605Z,2.40
2023-04-12T19:58:58.048Z,3.33
2023-04-12T20:01:26.532Z,4.38
2023-04-12T20:03:53.860Z,4.13
2023-04-12T20:06:21.486Z,2.20
2023-04-12T20:08:48.687Z,2.85
2023-04-12T20:11:17.433Z,4.18
2023-04-12T20:13:44.623Z,3.47
2023-04-12T20:16:11.814Z,3.28
2023-04-12T20:18:39.000Z,2.95
2023-04-12T20:21:09.905Z,3.28
2023-04-12T20:23:37.130Z,2.88
2023-04-12T20:26:05.383Z,3.83
2023-04-12T20:28:34.310Z,3.15
2023-04-12T20:31:01.577Z,3.10
2023-04-12T20:33:29.244Z,4.28
2023-04-12T20:35:56.425Z,3.25
2023-04-12T20:38:24.037Z,2.53
2023-04-12T20:40:51.234Z,3.40
2023-04-12T20:43:18.427Z,3.97
2023-04-12T20:45:48.551Z,3.53
2023-04-12T20:50:42.902Z,4.15
2023-04-12T20:53:15.017Z,3.00
2023-04-12T20:55:42.718Z,3.63
2023-04-12T20:58:11.955Z,4.75
2023-04-12T21:00:39.165Z,3.47
2023-04-12T21:03:08.019Z,3.50
2023-04-12T21:05:35.627Z,5.32
2023-04-12T21:08:02.897Z,2.97
2023-04-12T21:10:30.113Z,4.75
2023-04-12T21:12:58.193Z,3.35
2023-04-12T21:15:25.408Z,3.28
2023-04-12T21:17:52.695Z,4.03
2023-04-12T21:20:21.714Z,3.22
2023-04-12T21:22:51.072Z,3.40
2023-04-12T21:25:18.752Z,3.15
2023-04-12T21:27:47.056Z,3.25
2023-04-12T21:30:14.302Z,3.35
2023-04-12T21:32:41.903Z,3.15
2023-04-12T21:35:10.916Z,3.70
2023-04-12T21:37:39.851Z,5.15
2023-04-12T21:40:09.182Z,5.25
2023-04-12T21:42:36.948Z,2.80
2023-04-12T21:45:04.380Z,3.28
2023-04-12T21:47:31.948Z,2.83
2023-04-12T21:49:59.283Z,3.38
2023-04-12T21:52:26.600Z,3.50
2023-04-12T21:54:55.526Z,4.18
2023-04-12T21:57:22.721Z,3.45
2023-04-12T21:59:49.908Z,2.95
2023-04-12T22:02:17.219Z,3.97
2023-04-12T22:04:44.535Z,4.40
2023-04-12T22:07:12.845Z,6.25
2023-04-12T22:09:40.201Z,2.83
2023-04-12T22:12:08.703Z,3.67
2023-04-12T22:14:35.957Z,4.10
2023-04-12T22:17:03.950Z,4.28
2023-04-12T22:19:31.192Z,2.88
2023-04-12T22:21:58.363Z,2.60
2023-04-12T22:24:26.235Z,4.47
2023-04-12T22:26:56.110Z,3.78
2023-04-12T22:29:25.188Z,5.97
2023-04-12T22:31:52.564Z,3.67
2023-04-12T22:34:19.802Z,4.70
2023-04-12T22:36:51.469Z,3.83
2023-04-12T22:39:18.769Z,3.78
2023-04-12T22:41:49.190Z,3.33
2023-04-12T22:44:17.193Z,4.47
2023-04-12T22:46:48.053Z,3.25
2023-04-12T22:49:15.936Z,3.58
2023-04-12T22:51:43.111Z,3.35
2023-04-12T22:54:10.448Z,3.22
2023-04-12T22:56:41.973Z,3.08
2023-04-12T22:59:09.226Z,3.25
2023-04-12T23:01:36.847Z,3.88
2023-04-12T23:04:06.227Z,2.38
2023-04-12T23:06:33.442Z,3.60
2023-04-12T23:09:01.357Z,4.35
2023-04-12T23:11:28.964Z,3.60
2023-04-12T23:13:56.727Z,2.35
2023-04-12T23:16:24.575Z,3.53
2023-04-12T23:18:51.980Z,3.00
2023-04-12T23:21:20.493Z,2.88
2023-04-12T23:23:48.095Z,3.60
2023-04-12T23:26:15.281Z,3.47
2023-04-12T23:28:43.111Z,3.22
2023-04-12T23:31:10.336Z,2.55
2023-04-12T23:33:38.612Z,2.53
2023-04-12T23:36:06.141Z,2.22
2023-04-12T23:38:34.661Z,3.33
2023-04-12T23:41:02.202Z,2.75
2023-04-12T23:43:29.690Z,2.85
2023-04-12T23:45:56.925Z,2.95
2023-04-12T23:48:24.188Z,3.38
2023-04-12T23:50:51.521Z,2.83
2023-04-12T23:53:19.061Z,3.25
2023-04-12T23:55:48.564Z,2.97
2023-04-12T23:58:15.786Z,3.70
